Rock Crest, California
Current Conditions -  °F | °C
As of 9:47 AM on Tuesday 21 Oct 2014 (Local Time) from KCIC Reporting Station
Scattered Clouds Scattered Clouds  
Wind Chill: 55°   Ceiling: Unl
Heat Index: 55°   Visibility: 80mi
Dew Point: 45°   Wind: 7mph
Humidity: 67%   Direction: 300°WNW
Pressure: 30.12"   Gusts: NA
Location:  39.9071°N, 121.345°W
Report Text: KCIC 211647Z 30006KT 80SM SCT180 13/07 A3012
Loading
Personal Weather Stations






























Interactive Weather Map
Tropical Storm Tracking
New forecast layout! Learn more

10-Day Weather Forecast

Advertisements
Track Severe Weather on mobile